createdAt,value
2018-12-11T00:00:33.296Z,713.45
2018-12-11T00:01:33.807Z,713.45
2018-12-11T00:02:34.222Z,713.41
2018-12-11T00:03:34.687Z,713.52
2018-12-11T00:04:35.147Z,713.41
2018-12-11T00:05:35.606Z,713.66
2018-12-11T00:06:36.070Z,713.54
2018-12-11T00:07:36.536Z,713.68
2018-12-11T00:08:36.994Z,713.47
2018-12-11T00:09:37.457Z,713.59
2018-12-11T00:10:37.920Z,713.78
2018-12-11T00:11:38.383Z,713.63
2018-12-11T00:12:38.845Z,713.55
2018-12-11T00:13:39.306Z,713.68
2018-12-11T00:14:39.771Z,713.49
2018-12-11T00:15:40.231Z,713.86
2018-12-11T00:16:40.744Z,713.13
2018-12-11T00:17:41.156Z,713.49
2018-12-11T00:18:41.617Z,713.45
2018-12-11T00:19:42.079Z,713.40
2018-12-11T00:20:42.543Z,713.51
2018-12-11T00:21:43.002Z,713.39
2018-12-11T00:22:43.465Z,713.39
2018-12-11T00:23:43.930Z,713.60
2018-12-11T00:24:44.390Z,713.50
2018-12-11T00:25:44.854Z,713.41
2018-12-11T00:26:45.316Z,713.71
2018-12-11T00:27:45.776Z,713.50
2018-12-11T00:28:46.240Z,713.63
2018-12-11T00:29:46.700Z,713.40
2018-12-11T00:30:47.163Z,713.63
2018-12-11T00:31:47.626Z,713.58
2018-12-11T00:32:48.109Z,713.63
2018-12-11T00:33:48.550Z,713.60
2018-12-11T00:34:49.014Z,713.61
2018-12-11T00:35:49.474Z,713.69
2018-12-11T00:36:49.939Z,713.74
2018-12-11T00:37:50.399Z,713.70
2018-12-11T00:38:50.861Z,713.60
2018-12-11T00:39:51.323Z,713.70
2018-12-11T00:40:51.786Z,713.85
2018-12-11T00:41:52.298Z,713.69
2018-12-11T00:42:52.709Z,713.54
2018-12-11T00:43:53.205Z,713.42
2018-12-11T00:44:54.058Z,713.52
2018-12-11T00:45:54.098Z,713.29
2018-12-11T00:46:54.559Z,713.53
2018-12-11T00:47:55.020Z,713.54
2018-12-11T00:48:55.587Z,713.46
2018-12-11T00:49:55.944Z,713.28
2018-12-11T00:50:56.567Z,713.53
2018-12-11T00:51:57.064Z,713.78
2018-12-11T00:52:57.335Z,714.00
2018-12-11T00:53:57.792Z,713.66
2018-12-11T00:54:58.256Z,713.23
2018-12-11T00:55:58.718Z,713.55
2018-12-11T00:56:59.183Z,713.32
2018-12-11T00:57:59.642Z,713.66
2018-12-11T00:59:00.104Z,713.48
2018-12-11T01:00:00.565Z,713.59
2018-12-11T01:01:01.030Z,713.50
2018-12-11T01:02:01.492Z,713.50
2018-12-11T01:03:01.956Z,713.68
2018-12-11T01:04:02.417Z,713.53
2018-12-11T01:05:02.879Z,713.48
2018-12-11T01:06:03.338Z,713.64
2018-12-11T01:07:03.800Z,713.52
2018-12-11T01:08:04.264Z,713.68
2018-12-11T01:09:04.726Z,713.48
2018-12-11T01:10:05.188Z,713.57
2018-12-11T01:11:05.653Z,713.56
2018-12-11T01:12:06.111Z,713.43
2018-12-11T01:13:06.575Z,713.48
2018-12-11T01:14:07.038Z,713.54
2018-12-11T01:15:07.498Z,713.61
2018-12-11T01:16:07.960Z,713.41
2018-12-11T01:17:08.573Z,713.54
2018-12-11T01:18:08.885Z,713.74
2018-12-11T01:19:09.346Z,713.80
2018-12-11T01:20:09.808Z,713.76
2018-12-11T01:21:10.271Z,713.26
2018-12-11T01:22:10.732Z,713.71
2018-12-11T01:23:11.194Z,713.69
2018-12-11T01:24:11.659Z,713.64
2018-12-11T01:25:12.121Z,713.72
2018-12-11T01:26:12.582Z,713.79
2018-12-11T01:27:13.043Z,713.62
2018-12-11T01:28:13.508Z,713.85
2018-12-11T01:29:13.969Z,713.60
2018-12-11T01:30:14.429Z,713.71
2018-12-11T01:31:14.891Z,713.58
2018-12-11T01:32:15.404Z,713.66
2018-12-11T01:33:15.815Z,713.87
2018-12-11T01:34:16.277Z,713.78
2018-12-11T01:35:16.740Z,713.75
2018-12-11T01:36:17.200Z,713.76
2018-12-11T01:37:17.664Z,713.59
2018-12-11T01:38:18.125Z,713.70
2018-12-11T01:39:18.588Z,713.74
2018-12-11T01:40:19.048Z,713.79
2018-12-11T01:41:19.512Z,713.80
2018-12-11T01:42:19.973Z,713.98
2018-12-11T01:43:20.436Z,713.86
2018-12-11T01:44:20.898Z,714.00
2018-12-11T01:45:21.359Z,713.97
2018-12-11T01:46:21.822Z,713.94
2018-12-11T01:47:22.283Z,714.04
2018-12-11T01:48:22.747Z,713.87
2018-12-11T01:49:23.208Z,713.91
2018-12-11T01:50:23.668Z,713.86
2018-12-11T01:51:24.130Z,713.95
2018-12-11T01:52:24.644Z,713.75
2018-12-11T01:53:25.056Z,713.75
2018-12-11T01:54:25.517Z,713.86
2018-12-11T01:55:25.985Z,713.98
2018-12-11T01:56:26.480Z,713.60
2018-12-11T01:57:26.908Z,713.82
2018-12-11T01:58:27.367Z,713.78
2018-12-11T01:59:27.829Z,713.77
2018-12-11T02:00:28.289Z,713.90
2018-12-11T02:01:28.751Z,713.88
2018-12-11T02:02:29.215Z,713.96
2018-12-11T02:03:29.675Z,714.03
2018-12-11T02:04:30.140Z,714.05
2018-12-11T02:05:30.600Z,714.07
2018-12-11T02:06:31.068Z,714.03
2018-12-11T02:07:31.525Z,714.09
2018-12-11T02:08:31.989Z,714.05
2018-12-11T02:09:32.450Z,714.19
2018-12-11T02:10:32.910Z,714.16
2018-12-11T02:11:33.372Z,713.81
2018-12-11T02:12:33.834Z,713.81
2018-12-11T02:13:34.296Z,713.77
2018-12-11T02:14:34.757Z,713.86
2018-12-11T02:15:35.222Z,713.81
2018-12-11T02:16:35.683Z,713.94
2018-12-11T02:17:36.146Z,713.93
2018-12-11T02:18:36.608Z,713.75
2018-12-11T02:19:37.069Z,713.84
2018-12-11T02:20:37.532Z,713.84
2018-12-11T02:21:41.990Z,713.86
2018-12-11T02:22:38.456Z,714.01
2018-12-11T02:23:38.916Z,713.95
2018-12-11T02:24:39.379Z,713.87
2018-12-11T02:25:39.844Z,713.92
2018-12-11T02:26:40.306Z,713.87
2018-12-11T02:27:40.766Z,713.95
2018-12-11T02:28:41.227Z,713.91
2018-12-11T02:29:41.690Z,713.96
2018-12-11T02:30:42.152Z,713.96
2018-12-11T02:31:42.611Z,713.89
2018-12-11T02:32:43.076Z,713.83
2018-12-11T02:33:43.541Z,713.89
2018-12-11T02:34:43.999Z,713.86
2018-12-11T02:35:44.462Z,713.99
2018-12-11T02:36:44.927Z,713.84
2018-12-11T02:37:45.389Z,713.92
2018-12-11T02:38:45.848Z,713.90
2018-12-11T02:39:46.310Z,713.82
2018-12-11T02:40:46.772Z,713.76
2018-12-11T02:41:47.233Z,713.75
2018-12-11T02:42:47.695Z,713.91
2018-12-11T02:43:48.157Z,713.97
2018-12-11T02:44:48.623Z,714.08
2018-12-11T02:45:49.082Z,713.89
2018-12-11T02:46:49.543Z,713.95
2018-12-11T02:47:50.058Z,714.00
2018-12-11T02:48:50.469Z,713.94
2018-12-11T02:49:50.930Z,714.02
2018-12-11T02:50:51.392Z,713.93
2018-12-11T02:51:51.855Z,714.08
2018-12-11T02:52:52.316Z,713.99
2018-12-11T02:53:52.780Z,714.00
2018-12-11T02:54:53.239Z,713.90
2018-12-11T02:55:53.704Z,713.91
2018-12-11T02:56:54.575Z,714.00
2018-12-11T02:57:54.641Z,714.00
2018-12-11T02:58:55.120Z,714.08
2018-12-11T02:59:55.552Z,714.14
2018-12-11T03:00:56.068Z,714.08
2018-12-11T03:01:56.477Z,714.13
2018-12-11T03:02:56.936Z,714.01
2018-12-11T03:03:57.397Z,714.18
2018-12-11T03:04:57.860Z,714.09
2018-12-11T03:05:58.323Z,714.09
2018-12-11T03:06:58.786Z,714.19
2018-12-11T03:07:59.300Z,714.03
2018-12-11T03:08:59.711Z,714.12
2018-12-11T03:10:00.171Z,714.18
2018-12-11T03:11:00.634Z,714.15
2018-12-11T03:12:01.127Z,714.09
2018-12-11T03:13:01.559Z,714.04
2018-12-11T03:14:02.022Z,713.94
2018-12-11T03:15:02.479Z,714.04
2018-12-11T03:16:02.951Z,714.05
2018-12-11T03:17:03.406Z,713.95
2018-12-11T03:18:03.867Z,713.92
2018-12-11T03:19:04.330Z,713.85
2018-12-11T03:20:04.794Z,714.04
2018-12-11T03:21:05.253Z,713.97
2018-12-11T03:22:05.716Z,714.10
2018-12-11T03:23:06.481Z,714.12
2018-12-11T03:24:06.640Z,714.16
2018-12-11T03:25:07.102Z,714.16
2018-12-11T03:26:07.565Z,714.13
2018-12-11T03:27:08.026Z,714.14
2018-12-11T03:28:08.542Z,714.09
2018-12-11T03:29:08.953Z,714.05
2018-12-11T03:30:09.417Z,714.04
2018-12-11T03:31:09.875Z,714.02
2018-12-11T03:32:10.336Z,714.08
2018-12-11T03:33:10.803Z,714.17
2018-12-11T03:34:11.262Z,714.25
2018-12-11T03:35:11.723Z,714.25
2018-12-11T03:36:12.184Z,714.17
2018-12-11T03:37:12.646Z,714.25
2018-12-11T03:38:13.111Z,714.13
2018-12-11T03:39:13.571Z,714.30
2018-12-11T03:40:14.034Z,714.19
2018-12-11T03:41:14.496Z,714.16
2018-12-11T03:42:14.961Z,714.12
2018-12-11T03:43:15.469Z,714.22
2018-12-11T03:44:15.882Z,714.29
2018-12-11T03:45:16.344Z,714.21
2018-12-11T03:46:16.806Z,714.27
2018-12-11T03:47:17.267Z,714.27
2018-12-11T03:48:17.730Z,714.29
2018-12-11T03:49:18.193Z,714.39
2018-12-11T03:50:18.655Z,714.24
2018-12-11T03:51:19.149Z,714.30
2018-12-11T03:52:21.508Z,714.29
2018-12-11T03:53:20.041Z,714.27
2018-12-11T03:54:20.507Z,714.28
2018-12-11T03:55:20.964Z,714.28
2018-12-11T03:56:21.427Z,714.34
2018-12-11T03:57:21.889Z,714.35
2018-12-11T03:58:22.350Z,714.33
2018-12-11T03:59:22.819Z,714.17
2018-12-11T04:00:23.278Z,714.23
2018-12-11T04:01:23.739Z,714.27
2018-12-11T04:02:24.201Z,714.28
2018-12-11T04:03:24.663Z,714.26
2018-12-11T04:04:25.123Z,714.20
2018-12-11T04:05:25.587Z,714.16
2018-12-11T04:06:26.048Z,714.20
2018-12-11T04:07:26.509Z,714.19
2018-12-11T04:08:26.974Z,714.07
2018-12-11T04:09:27.435Z,714.22
2018-12-11T04:10:27.897Z,714.23
2018-12-11T04:11:28.366Z,714.19
2018-12-11T04:12:28.860Z,714.14
2018-12-11T04:13:29.284Z,714.21
2018-12-11T04:14:29.746Z,714.19
2018-12-11T04:15:30.208Z,714.20
2018-12-11T04:16:30.669Z,714.28
2018-12-11T04:17:31.141Z,714.20
2018-12-11T04:18:31.594Z,714.17
2018-12-11T04:19:32.056Z,714.23
2018-12-11T04:20:32.519Z,714.17
2018-12-11T04:21:32.981Z,714.19
2018-12-11T04:22:33.444Z,714.11
2018-12-11T04:23:33.904Z,714.18
2018-12-11T04:24:34.368Z,714.21
2018-12-11T04:25:34.830Z,714.19
2018-12-11T04:26:35.293Z,714.18
2018-12-11T04:27:35.752Z,714.10
2018-12-11T04:28:36.216Z,714.06
2018-12-11T04:29:36.679Z,714.14
2018-12-11T04:30:37.143Z,714.14
2018-12-11T04:31:37.608Z,714.25
2018-12-11T04:32:38.064Z,714.31
2018-12-11T04:33:38.529Z,714.30
2018-12-11T04:34:38.989Z,714.27
2018-12-11T04:35:39.450Z,714.21
2018-12-11T04:36:39.912Z,714.31
2018-12-11T04:37:40.375Z,714.19
2018-12-11T04:38:40.889Z,714.21
2018-12-11T04:39:41.296Z,714.17
2018-12-11T04:40:41.769Z,714.18
2018-12-11T04:41:42.226Z,714.18
2018-12-11T04:42:42.684Z,714.23
2018-12-11T04:43:43.147Z,714.23
2018-12-11T04:44:43.608Z,714.38
2018-12-11T04:45:44.072Z,714.26
2018-12-11T04:46:44.531Z,714.38
2018-12-11T04:47:44.994Z,714.39
2018-12-11T04:48:45.455Z,714.31
2018-12-11T04:49:45.920Z,714.32
2018-12-11T04:50:46.381Z,714.20
2018-12-11T04:51:46.845Z,714.37
2018-12-11T04:52:47.302Z,714.26
2018-12-11T04:53:47.815Z,714.24
2018-12-11T04:54:48.231Z,714.31
2018-12-11T04:55:48.689Z,714.17
2018-12-11T04:56:49.150Z,714.25
2018-12-11T04:57:49.613Z,714.27
2018-12-11T04:58:50.075Z,714.26
2018-12-11T04:59:50.535Z,714.27
2018-12-11T05:00:50.998Z,714.11
2018-12-11T05:01:51.461Z,714.23
2018-12-11T05:02:51.932Z,714.35
2018-12-11T05:03:52.387Z,714.18
2018-12-11T05:04:52.847Z,714.20
2018-12-11T05:05:53.660Z,714.28
2018-12-11T05:06:53.778Z,713.98
2018-12-11T05:07:54.233Z,713.93
2018-12-11T05:08:54.714Z,714.22
2018-12-11T05:09:55.155Z,714.18
2018-12-11T05:10:56.011Z,714.21
2018-12-11T05:11:56.081Z,714.12
2018-12-11T05:12:56.727Z,714.26
2018-12-11T05:13:57.006Z,714.31
2018-12-11T05:14:57.526Z,714.29
2018-12-11T05:15:57.930Z,714.17
2018-12-11T05:16:58.389Z,714.07
2018-12-11T05:17:58.851Z,714.23
2018-12-11T05:18:59.312Z,714.09
2018-12-11T05:19:59.774Z,714.09
2018-12-11T05:21:00.242Z,714.31
2018-12-11T05:22:00.698Z,714.01
2018-12-11T05:23:01.161Z,714.07
2018-12-11T05:24:01.631Z,714.20
2018-12-11T05:25:02.083Z,714.19
2018-12-11T05:26:02.548Z,714.17
2018-12-11T05:27:03.009Z,714.16
2018-12-11T05:28:03.468Z,714.12
2018-12-11T05:29:03.930Z,714.14
2018-12-11T05:30:04.400Z,714.13
2018-12-11T05:31:04.855Z,713.93
2018-12-11T05:32:05.320Z,713.97
2018-12-11T05:33:05.779Z,714.02
2018-12-11T05:34:06.239Z,714.04
2018-12-11T05:35:06.704Z,714.15
2018-12-11T05:36:07.164Z,714.02
2018-12-11T05:37:07.627Z,714.04
2018-12-11T05:38:08.088Z,714.14
2018-12-11T05:39:08.602Z,713.91
2018-12-11T05:40:09.011Z,713.92
2018-12-11T05:41:09.477Z,713.94
2018-12-11T05:42:09.937Z,714.03
2018-12-11T05:43:10.400Z,713.99
2018-12-11T05:44:10.860Z,713.96
2018-12-11T05:45:11.321Z,714.09
2018-12-11T05:46:11.786Z,714.05
2018-12-11T05:47:12.245Z,713.92
2018-12-11T05:48:12.708Z,713.98
2018-12-11T05:49:13.167Z,714.06
2018-12-11T05:50:13.630Z,714.24
2018-12-11T05:51:14.092Z,714.15
2018-12-11T05:52:14.558Z,714.25
2018-12-11T05:53:15.015Z,714.27
2018-12-11T05:54:15.476Z,714.16
2018-12-11T05:55:15.940Z,714.13
2018-12-11T05:56:16.399Z,714.09
2018-12-11T05:57:16.861Z,714.10
2018-12-11T05:58:17.325Z,714.07
2018-12-11T05:59:17.786Z,714.03
2018-12-11T06:00:18.250Z,714.20
2018-12-11T06:01:18.712Z,714.01
2018-12-11T06:02:19.171Z,714.04
2018-12-11T06:03:19.633Z,714.10
2018-12-11T06:04:20.093Z,714.01
2018-12-11T06:05:20.556Z,714.05
2018-12-11T06:06:21.019Z,714.02
2018-12-11T06:07:21.481Z,713.94
2018-12-11T06:08:21.943Z,713.89
2018-12-11T06:09:22.403Z,713.92
2018-12-11T06:10:22.869Z,713.96
2018-12-11T06:11:23.328Z,714.02
2018-12-11T06:12:23.791Z,713.94
2018-12-11T06:13:24.251Z,714.05
2018-12-11T06:14:24.712Z,714.04
2018-12-11T06:15:25.175Z,713.95
2018-12-11T06:16:25.638Z,713.96
2018-12-11T06:17:26.098Z,714.20
2018-12-11T06:18:26.561Z,714.00
2018-12-11T06:19:27.023Z,714.16
2018-12-11T06:20:27.484Z,714.18
2018-12-11T06:21:27.946Z,714.15
2018-12-11T06:22:28.408Z,714.14
2018-12-11T06:23:28.870Z,714.25
2018-12-11T06:24:29.333Z,714.20
2018-12-11T06:25:29.796Z,714.15
2018-12-11T06:26:30.253Z,714.15
2018-12-11T06:27:30.718Z,714.21
2018-12-11T06:28:31.178Z,714.06
2018-12-11T06:29:31.642Z,714.21
2018-12-11T06:30:32.102Z,714.24
2018-12-11T06:31:32.565Z,714.26
2018-12-11T06:32:33.025Z,714.25
2018-12-11T06:33:33.488Z,714.29
2018-12-11T06:34:33.950Z,714.33
2018-12-11T06:35:34.414Z,714.30
2018-12-11T06:36:34.870Z,714.27
2018-12-11T06:37:35.334Z,714.41
2018-12-11T06:38:35.799Z,714.32
2018-12-11T06:39:36.359Z,714.31
2018-12-11T06:40:36.720Z,714.36
2018-12-11T06:41:37.184Z,714.43
2018-12-11T06:42:37.643Z,714.50
2018-12-11T06:43:38.110Z,714.39
2018-12-11T06:44:38.567Z,714.45
2018-12-11T06:45:39.026Z,714.42
2018-12-11T06:46:39.490Z,714.37
2018-12-11T06:47:39.952Z,714.25
2018-12-11T06:48:40.413Z,714.34
2018-12-11T06:49:40.875Z,714.46
2018-12-11T06:50:41.338Z,714.44
2018-12-11T06:51:41.799Z,714.38
2018-12-11T06:52:42.258Z,714.41
2018-12-11T06:53:42.722Z,714.48
2018-12-11T06:54:43.182Z,714.45
2018-12-11T06:55:43.646Z,714.40
2018-12-11T06:56:44.106Z,714.46
2018-12-11T06:57:44.567Z,714.40
2018-12-11T06:58:45.029Z,714.38
2018-12-11T06:59:45.491Z,714.50
2018-12-11T07:00:45.953Z,714.37
2018-12-11T07:01:46.414Z,714.40
2018-12-11T07:02:46.876Z,714.38
2018-12-11T07:03:47.341Z,714.24
2018-12-11T07:04:47.799Z,714.31
2018-12-11T07:05:48.261Z,714.32
2018-12-11T07:06:48.725Z,714.40
2018-12-11T07:07:49.185Z,714.30
2018-12-11T07:08:49.646Z,714.33
2018-12-11T07:09:50.183Z,714.37
2018-12-11T07:10:50.575Z,714.44
2018-12-11T07:11:51.036Z,714.48
2018-12-11T07:12:51.493Z,714.41
2018-12-11T07:13:51.954Z,714.48
2018-12-11T07:14:52.416Z,714.50
2018-12-11T07:15:52.880Z,714.58
2018-12-11T07:16:53.340Z,714.49
2018-12-11T07:17:53.805Z,714.51
2018-12-11T07:18:54.266Z,714.56
2018-12-11T07:19:54.727Z,714.57
2018-12-11T07:20:55.189Z,714.62
2018-12-11T07:21:55.648Z,714.56
2018-12-11T07:22:56.112Z,714.53
2018-12-11T07:23:56.573Z,714.59
2018-12-11T07:24:57.085Z,714.59
2018-12-11T07:25:57.495Z,714.53
2018-12-11T07:26:57.959Z,714.55
2018-12-11T07:27:58.420Z,714.53
2018-12-11T07:28:58.881Z,714.46
2018-12-11T07:29:59.342Z,714.57
2018-12-11T07:30:59.804Z,714.52
2018-12-11T07:32:00.268Z,714.62
2018-12-11T07:33:00.728Z,714.67
2018-12-11T07:34:01.189Z,714.51
2018-12-11T07:35:01.652Z,714.56
2018-12-11T07:36:02.112Z,714.60
2018-12-11T07:37:02.575Z,714.59
2018-12-11T07:38:03.035Z,714.54
2018-12-11T07:39:03.498Z,714.57
2018-12-11T07:40:04.011Z,714.51
2018-12-11T07:41:04.424Z,714.45
2018-12-11T07:42:04.883Z,714.48
2018-12-11T07:43:05.352Z,714.44
2018-12-11T07:44:05.811Z,714.45
2018-12-11T07:45:06.267Z,714.59
2018-12-11T07:46:07.322Z,714.46
2018-12-11T07:47:07.193Z,714.40
2018-12-11T07:48:07.657Z,714.32
2018-12-11T07:49:08.118Z,714.29
2018-12-11T07:50:08.576Z,714.31
2018-12-11T07:51:09.041Z,714.24
2018-12-11T07:52:09.504Z,714.27
2018-12-11T07:53:09.964Z,714.36
2018-12-11T07:54:10.425Z,714.34
2018-12-11T07:55:10.886Z,714.16
2018-12-11T07:56:11.349Z,714.33
2018-12-11T07:57:11.811Z,714.32
2018-12-11T07:58:12.272Z,714.33
2018-12-11T07:59:12.736Z,714.22
2018-12-11T08:00:13.248Z,714.13
2018-12-11T08:01:13.666Z,714.38
2018-12-11T08:02:14.120Z,714.15
2018-12-11T08:03:14.581Z,714.30
2018-12-11T08:04:15.043Z,714.09
2018-12-11T08:05:15.504Z,714.19
2018-12-11T08:06:15.966Z,714.21
2018-12-11T08:07:16.428Z,714.39
2018-12-11T08:08:16.891Z,714.37
2018-12-11T08:09:17.356Z,714.32
2018-12-11T08:10:17.815Z,714.51
2018-12-11T08:11:18.276Z,714.41
2018-12-11T08:12:18.739Z,714.32
2018-12-11T08:13:19.198Z,714.39
2018-12-11T08:14:19.660Z,714.32
2018-12-11T08:15:20.174Z,714.30
2018-12-11T08:16:20.584Z,714.18
2018-12-11T08:17:21.047Z,714.27
2018-12-11T08:18:21.508Z,714.21
2018-12-11T08:19:21.971Z,713.90
2018-12-11T08:20:22.433Z,714.23
2018-12-11T08:21:22.896Z,714.13
2018-12-11T08:22:23.358Z,714.10
2018-12-11T08:23:23.818Z,714.16
2018-12-11T08:24:24.279Z,714.34
2018-12-11T08:25:24.739Z,714.27
2018-12-11T08:26:25.202Z,713.79
2018-12-11T08:27:25.664Z,713.86
2018-12-11T08:28:26.127Z,713.94
2018-12-11T08:29:26.588Z,713.93
2018-12-11T08:30:27.051Z,713.98
2018-12-11T08:31:27.510Z,714.19
2018-12-11T08:32:27.977Z,714.06
2018-12-11T08:33:28.434Z,714.26
2018-12-11T08:34:28.896Z,714.15
2018-12-11T08:35:29.408Z,714.33
2018-12-11T08:36:29.821Z,714.03
2018-12-11T08:37:30.282Z,714.24
2018-12-11T08:38:30.745Z,713.84
2018-12-11T08:39:31.205Z,714.16
2018-12-11T08:40:31.667Z,714.14
2018-12-11T08:41:32.133Z,714.04
2018-12-11T08:42:32.590Z,714.31
2018-12-11T08:43:33.053Z,714.20
2018-12-11T08:44:33.516Z,713.95
2018-12-11T08:45:33.975Z,714.25
2018-12-11T08:46:34.438Z,714.30
2018-12-11T08:47:34.900Z,714.29
2018-12-11T08:48:35.363Z,714.43
2018-12-11T08:49:35.823Z,714.32
2018-12-11T08:50:36.337Z,714.26
2018-12-11T08:51:36.749Z,714.45
2018-12-11T08:52:37.208Z,714.37
2018-12-11T08:53:37.671Z,714.29
2018-12-11T08:54:38.132Z,714.17
2018-12-11T08:55:38.596Z,714.43
2018-12-11T08:56:39.056Z,714.59
2018-12-11T08:57:39.517Z,714.39
2018-12-11T08:58:39.983Z,714.11
2018-12-11T08:59:40.443Z,714.13
2018-12-11T09:00:40.904Z,714.12
2018-12-11T09:01:41.368Z,714.31
2018-12-11T09:02:41.827Z,714.41
2018-12-11T09:03:42.292Z,714.29
2018-12-11T09:04:42.752Z,714.28
2018-12-11T09:05:43.213Z,714.64
2018-12-11T09:06:43.677Z,714.41
2018-12-11T09:07:44.138Z,714.29
2018-12-11T09:08:44.600Z,714.30
2018-12-11T09:09:45.062Z,714.48
2018-12-11T09:10:45.578Z,714.48
2018-12-11T09:11:45.987Z,714.35
2018-12-11T09:12:46.449Z,714.30
2018-12-11T09:13:46.911Z,714.36
2018-12-11T09:14:47.372Z,714.29
2018-12-11T09:15:47.885Z,714.48
2018-12-11T09:16:48.297Z,714.56
2018-12-11T09:17:48.759Z,714.59
2018-12-11T09:18:49.223Z,714.67
2018-12-11T09:19:49.685Z,714.68
2018-12-11T09:20:50.145Z,714.66
2018-12-11T09:21:50.608Z,714.70
2018-12-11T09:22:51.069Z,714.75
2018-12-11T09:23:51.531Z,714.62
2018-12-11T09:24:51.994Z,714.55
2018-12-11T09:25:52.454Z,714.52
2018-12-11T09:26:52.926Z,714.50
2018-12-11T09:27:53.380Z,714.65
2018-12-11T09:28:53.842Z,714.34
2018-12-11T09:29:54.313Z,714.63
2018-12-11T09:30:54.765Z,714.80
2018-12-11T09:31:55.227Z,714.65
2018-12-11T09:32:55.691Z,714.72
2018-12-11T09:33:56.150Z,714.69
2018-12-11T09:34:56.614Z,714.64
2018-12-11T09:35:57.074Z,714.61
2018-12-11T09:36:57.540Z,714.59
2018-12-11T09:37:57.998Z,714.64
2018-12-11T09:38:58.463Z,714.56
2018-12-11T09:39:58.923Z,714.77
2018-12-11T09:40:59.385Z,714.69
2018-12-11T09:41:59.850Z,714.76
2018-12-11T09:43:00.310Z,714.73
2018-12-11T09:44:00.772Z,714.61
2018-12-11T09:45:01.233Z,714.64
2018-12-11T09:46:01.695Z,714.70
2018-12-11T09:47:02.159Z,714.64
2018-12-11T09:48:02.620Z,714.55
2018-12-11T09:49:03.083Z,714.69
2018-12-11T09:50:03.546Z,714.59
2018-12-11T09:51:04.012Z,714.65
2018-12-11T09:52:04.468Z,714.59
2018-12-11T09:53:04.930Z,714.65
2018-12-11T09:54:05.394Z,714.73
2018-12-11T09:55:05.855Z,714.70
2018-12-11T09:56:06.318Z,714.62
2018-12-11T09:57:06.780Z,714.63
2018-12-11T09:58:07.242Z,714.51
2018-12-11T09:59:07.706Z,714.75
2018-12-11T10:00:08.165Z,714.73
2018-12-11T10:01:08.629Z,714.85
2018-12-11T10:02:09.090Z,714.64
2018-12-11T10:03:09.552Z,714.65
2018-12-11T10:04:10.014Z,714.63
2018-12-11T10:05:10.474Z,714.63
2018-12-11T10:06:10.937Z,714.59
2018-12-11T10:07:11.401Z,714.54
2018-12-11T10:08:11.863Z,714.45
2018-12-11T10:09:12.324Z,714.58
2018-12-11T10:10:12.786Z,714.54
2018-12-11T10:11:13.247Z,714.58
2018-12-11T10:12:13.712Z,714.85
2018-12-11T10:13:14.173Z,714.73
2018-12-11T10:14:14.634Z,714.43
2018-12-11T10:15:15.096Z,714.77
2018-12-11T10:16:15.558Z,714.90
2018-12-11T10:17:16.020Z,714.57
2018-12-11T10:18:16.483Z,714.65
2018-12-11T10:19:16.946Z,714.65
2018-12-11T10:20:17.408Z,714.67
2018-12-11T10:21:17.872Z,714.68
2018-12-11T10:22:18.335Z,714.66
2018-12-11T10:23:18.795Z,714.75
2018-12-11T10:24:19.258Z,714.71
2018-12-11T10:25:19.719Z,714.73
2018-12-11T10:26:20.182Z,714.72
2018-12-11T10:27:20.642Z,714.83
2018-12-11T10:28:21.103Z,714.77
2018-12-11T10:29:21.569Z,714.83
2018-12-11T10:30:22.031Z,714.81
2018-12-11T10:31:22.490Z,714.79
2018-12-11T10:32:22.952Z,714.82
2018-12-11T10:33:23.414Z,714.68
2018-12-11T10:34:23.881Z,714.56
2018-12-11T10:35:24.338Z,714.65
2018-12-11T10:36:24.803Z,714.66
2018-12-11T10:37:25.262Z,714.66
2018-12-11T10:38:25.725Z,714.71
2018-12-11T10:39:26.188Z,714.72
2018-12-11T10:40:26.652Z,714.64
2018-12-11T10:41:27.114Z,714.69
2018-12-11T10:42:27.575Z,714.48
2018-12-11T10:43:28.039Z,714.59
2018-12-11T10:44:28.503Z,714.57
2018-12-11T10:45:28.962Z,714.53
2018-12-11T10:46:33.720Z,714.64
2018-12-11T10:47:29.887Z,714.72
2018-12-11T10:48:30.347Z,714.76
2018-12-11T10:49:30.813Z,714.66
2018-12-11T10:50:31.272Z,714.75
2018-12-11T10:51:31.736Z,714.63
2018-12-11T10:52:32.199Z,714.57
2018-12-11T10:53:32.661Z,714.66
2018-12-11T10:54:33.125Z,714.58
2018-12-11T10:55:33.584Z,714.49
2018-12-11T10:56:34.048Z,714.63
2018-12-11T10:57:34.511Z,714.57
2018-12-11T10:58:34.972Z,714.51
2018-12-11T10:59:35.435Z,714.44
2018-12-11T11:00:35.897Z,714.34
2018-12-11T11:01:36.359Z,714.47
2018-12-11T11:02:36.821Z,714.49
2018-12-11T11:03:37.283Z,714.48
2018-12-11T11:04:37.747Z,714.38
2018-12-11T11:05:38.210Z,714.17
2018-12-11T11:06:38.723Z,714.47
2018-12-11T11:07:39.133Z,714.20
2018-12-11T11:08:39.598Z,714.35
2018-12-11T11:09:40.060Z,714.38
2018-12-11T11:10:40.522Z,714.32
2018-12-11T11:11:41.995Z,714.51
2018-12-11T11:12:41.445Z,714.15
2018-12-11T11:13:41.917Z,714.55
2018-12-11T11:14:42.381Z,714.42
2018-12-11T11:15:42.834Z,714.55
2018-12-11T11:16:43.301Z,714.55
2018-12-11T11:17:43.760Z,714.39
2018-12-11T11:18:44.225Z,714.48
2018-12-11T11:19:44.685Z,714.48
2018-12-11T11:20:45.146Z,714.38
2018-12-11T11:21:45.662Z,714.47
2018-12-11T11:22:46.070Z,714.54
2018-12-11T11:23:46.536Z,714.48
2018-12-11T11:24:46.998Z,714.47
2018-12-11T11:25:47.459Z,714.42
2018-12-11T11:26:47.922Z,714.49
2018-12-11T11:27:48.386Z,714.47
2018-12-11T11:28:48.850Z,714.52
2018-12-11T11:29:49.311Z,714.45
2018-12-11T11:30:49.773Z,714.31
2018-12-11T11:31:50.234Z,714.61
2018-12-11T11:32:50.698Z,714.53
2018-12-11T11:33:56.698Z,714.57
2018-12-11T11:34:51.623Z,714.60
2018-12-11T11:35:52.085Z,714.67
2018-12-11T11:36:52.549Z,714.63
2018-12-11T11:37:53.011Z,714.65
2018-12-11T11:38:53.478Z,714.64
2018-12-11T11:39:53.941Z,714.63
2018-12-11T11:40:54.400Z,714.62
2018-12-11T11:41:54.912Z,714.50
2018-12-11T11:42:55.324Z,714.47
2018-12-11T11:43:55.788Z,714.52
2018-12-11T11:44:56.249Z,714.48
2018-12-11T11:45:56.712Z,714.53
2018-12-11T11:46:57.174Z,714.54
2018-12-11T11:47:57.637Z,714.53
2018-12-11T11:48:58.099Z,714.47
2018-12-11T11:49:58.561Z,714.45
2018-12-11T11:50:59.024Z,714.43
2018-12-11T11:51:59.488Z,714.50
2018-12-11T11:52:59.951Z,714.45
2018-12-11T11:54:00.413Z,714.45
2018-12-11T11:55:00.875Z,714.45
2018-12-11T11:56:01.337Z,714.41
2018-12-11T11:57:01.801Z,714.35
2018-12-11T11:58:02.264Z,714.40
2018-12-11T11:59:02.724Z,714.46
2018-12-11T12:00:03.187Z,714.43
2018-12-11T12:01:03.650Z,714.46
2018-12-11T12:02:04.113Z,714.35
2018-12-11T12:03:04.624Z,714.44
2018-12-11T12:04:05.038Z,714.45
2018-12-11T12:05:05.503Z,714.47
2018-12-11T12:06:05.966Z,714.41
2018-12-11T12:07:06.428Z,714.36
2018-12-11T12:08:06.891Z,714.35
2018-12-11T12:09:07.351Z,714.38
2018-12-11T12:10:07.815Z,714.28
2018-12-11T12:11:08.277Z,714.30
2018-12-11T12:12:08.739Z,714.32
2018-12-11T12:13:09.228Z,714.29
2018-12-11T12:14:09.666Z,714.32
2018-12-11T12:15:10.128Z,714.26
2018-12-11T12:16:10.591Z,714.25
2018-12-11T12:17:11.051Z,714.24
2018-12-11T12:18:11.519Z,714.35
2018-12-11T12:19:11.977Z,714.32
2018-12-11T12:20:12.439Z,714.31
2018-12-11T12:21:12.907Z,714.44
2018-12-11T12:22:13.366Z,714.32
2018-12-11T12:23:13.827Z,714.38
2018-12-11T12:24:14.290Z,714.39
2018-12-11T12:25:14.758Z,714.36
2018-12-11T12:26:15.218Z,714.41
2018-12-11T12:27:15.678Z,714.35
2018-12-11T12:28:16.145Z,714.38
2018-12-11T12:29:16.604Z,714.41
2018-12-11T12:30:17.066Z,714.35
2018-12-11T12:31:17.529Z,714.35
2018-12-11T12:32:17.991Z,714.42
2018-12-11T12:33:18.454Z,714.45
2018-12-11T12:34:18.920Z,714.38